CFG9QXK EPGD-EDDH
Flight info
| Callsign | CFG9QXK |
|---|---|
| Flight time | N/A |
| Altitude | 36000 |
| Route | DEXIR T671 AGODU DCT BODLA L733 TABOK DCT RADEL DCT PODUS L619 BUMIL/N0373F240 M748 RARUP |
| Aircraft | A320/M-SDE3FGHIRWY/LB1 |
Departure
| Time | 2026-04-30 15:06 |
|---|---|
| Airport | Gdańsk Lech Wałęsa Airport (EPGD) |
Arrival
| Time | N/A |
|---|---|
| Airport | Hamburg Helmut Schmidt Airport (EDDH) |
| Time | Latitude | Longitude | Altitude | Speed | Heading |
|---|---|---|---|---|---|
| 2026-04-30 14:42 | 54.38028 | 18.46799 | 453 ft | 0 kts | 24° |
| 2026-04-30 14:57 | 54.38024 | 18.46796 | 453 ft | 3 kts | 24° |
| 2026-04-30 14:58 | 54.37989 | 18.46770 | 453 ft | 3 kts | 24° |
| 2026-04-30 14:58 | 54.37972 | 18.46757 | 453 ft | 3 kts | 24° |
| 2026-04-30 14:58 | 54.37944 | 18.46722 | 453 ft | 3 kts | 99° |
| 2026-04-30 14:59 | 54.37959 | 18.46683 | 453 ft | 0 kts | 99° |
| 2026-04-30 15:00 | 54.37930 | 18.46821 | 454 ft | 15 kts | 113° |
| 2026-04-30 15:00 | 54.37829 | 18.47064 | 454 ft | 15 kts | 117° |
| 2026-04-30 15:01 | 54.37749 | 18.47374 | 459 ft | 12 kts | 116° |
| 2026-04-30 15:01 | 54.37729 | 18.47455 | 459 ft | 10 kts | 110° |
| 2026-04-30 15:01 | 54.37663 | 18.47701 | 462 ft | 6 kts | 127° |
| 2026-04-30 15:02 | 54.37660 | 18.47706 | 462 ft | 2 kts | 131° |
| 2026-04-30 15:02 | 54.37611 | 18.47659 | 462 ft | 16 kts | 246° |
| 2026-04-30 15:03 | 54.37542 | 18.47485 | 460 ft | 27 kts | 110° |
| 2026-04-30 15:03 | 54.37379 | 18.48146 | 468 ft | 28 kts | 112° |
| 2026-04-30 15:04 | 54.37232 | 18.48747 | 474 ft | 27 kts | 113° |
| 2026-04-30 15:04 | 54.37196 | 18.48897 | 475 ft | 37 kts | 292° |
| 2026-04-30 15:05 | 54.38181 | 18.44889 | 958 ft | 158 kts | 294° |
| 2026-04-30 15:06 | 54.39016 | 18.41570 | 2435 ft | 146 kts | 295° |
| 2026-04-30 15:06 | 54.38814 | 18.37879 | 3122 ft | 180 kts | 253° |
| 2026-04-30 15:07 | 54.37911 | 18.33259 | 3743 ft | 228 kts | 253° |
| 2026-04-30 15:07 | 54.37038 | 18.28633 | 4604 ft | 256 kts | 255° |
| 2026-04-30 15:08 | 54.35984 | 18.22704 | 6261 ft | 263 kts | 257° |
| 2026-04-30 15:08 | 54.34379 | 18.13426 | 8561 ft | 279 kts | 258° |
| 2026-04-30 15:09 | 54.33287 | 18.07040 | 10412 ft | 272 kts | 249° |
| 2026-04-30 15:09 | 54.32131 | 18.00394 | 11041 ft | 314 kts | 249° |
| 2026-04-30 15:10 | 54.30789 | 17.92712 | 11459 ft | 358 kts | 252° |
| 2026-04-30 15:11 | 54.27911 | 17.76049 | 14120 ft | 373 kts | 258° |
| 2026-04-30 15:11 | 54.26407 | 17.67432 | 15348 ft | 382 kts | 258° |
| 2026-04-30 15:12 | 54.24065 | 17.54135 | 17093 ft | 396 kts | 258° |
| 2026-04-30 15:13 | 54.22398 | 17.45028 | 18198 ft | 408 kts | 253° |
| 2026-04-30 15:14 | 54.17243 | 17.27160 | 20304 ft | 428 kts | 248° |
| 2026-04-30 15:14 | 54.13187 | 17.13381 | 21762 ft | 438 kts | 248° |
| 2026-04-30 15:16 | 54.07637 | 16.89057 | 23991 ft | 446 kts | 260° |
| 2026-04-30 15:17 | 54.04200 | 16.68503 | 25530 ft | 459 kts | 260° |
| 2026-04-30 15:18 | 53.99693 | 16.41970 | 27293 ft | 475 kts | 259° |
| 2026-04-30 15:19 | 53.96868 | 16.25621 | 28238 ft | 485 kts | 259° |